createdAt,value
2022-08-03T00:00:57.870Z,32.1
2022-08-03T00:03:12.763Z,31.6
2022-08-03T00:05:27.657Z,31.4
2022-08-03T00:07:52.342Z,31.4
2022-08-03T00:10:07.189Z,32.3
2022-08-03T00:14:36.859Z,31.1
2022-08-03T00:16:51.777Z,31.4
2022-08-03T00:19:10.788Z,32.3
2022-08-03T00:21:25.664Z,30.9
2022-08-03T00:23:51.970Z,30.5
2022-08-03T00:25:55.543Z,31.5
2022-08-03T00:28:10.165Z,31.4
2022-08-03T00:30:33.066Z,31.1
2022-08-03T00:33:01.401Z,30.6
2022-08-03T00:35:54.633Z,30.6
2022-08-03T00:38:13.175Z,30.8
2022-08-03T00:40:28.076Z,30.1
2022-08-03T00:42:42.831Z,30.2
2022-08-03T00:44:57.679Z,30.4
2022-08-03T03:37:21.886Z,33.5
2022-08-03T03:41:51.477Z,31.4
2022-08-03T03:44:06.347Z,34.4
2022-08-03T03:46:21.152Z,34.1
2022-08-03T03:48:35.958Z,33.8
2022-08-03T03:50:50.930Z,32.8
2022-08-03T03:53:05.831Z,29.6
2022-08-03T03:55:20.561Z,32.7
2022-08-03T03:57:46.924Z,32.1
2022-08-03T04:00:01.774Z,30.8
2022-08-03T04:02:17.037Z,31.1
2022-08-03T04:04:31.554Z,29.8
2022-08-03T04:06:46.246Z,31.1
2022-08-03T04:09:01.178Z,30.7
2022-08-03T04:11:16.599Z,31
2022-08-03T04:13:31.721Z,30.9
2022-08-03T04:15:46.376Z,30.7
2022-08-03T04:18:01.230Z,30.7
2022-08-03T04:20:16.092Z,30.6
2022-08-03T04:22:30.881Z,31
2022-08-03T04:24:45.940Z,30.8
2022-08-03T04:27:00.642Z,30.6
2022-08-03T04:29:33.316Z,30.8
2022-08-03T04:31:48.089Z,30.8
2022-08-03T04:34:02.958Z,30.7
2022-08-03T04:36:35.310Z,30.6
2022-08-03T04:38:50.087Z,30.6
2022-08-03T04:41:05.033Z,31.1
2022-08-03T04:43:41.392Z,30.6
2022-08-03T04:45:56.111Z,30.7
2022-08-03T04:48:10.826Z,30.8
2022-08-03T04:50:25.878Z,30.8
2022-08-03T04:52:40.613Z,30.9
2022-08-03T04:54:55.429Z,30.7
2022-08-03T04:57:10.264Z,31.1
2022-08-03T04:59:25.193Z,30.8
2022-08-03T05:01:40.164Z,29.6
2022-08-03T05:03:56.584Z,31.2
2022-08-03T05:06:20.953Z,30.4
2022-08-03T05:08:36.291Z,30.7
2022-08-03T05:11:06.996Z,30.8
2022-08-03T05:13:21.912Z,30
2022-08-03T05:15:36.637Z,31.3
2022-08-03T05:17:51.587Z,30.6
2022-08-03T05:22:39.359Z,30
2022-08-03T05:24:54.219Z,30.9
2022-08-03T05:27:08.985Z,29.6
2022-08-03T05:29:24.145Z,29.9
2022-08-03T05:31:50.339Z,31.1
2022-08-03T05:34:05.112Z,29.5
2022-08-03T05:37:05.913Z,31.1
2022-08-03T05:39:20.666Z,30.8
2022-08-03T05:41:39.971Z,30.8
2022-08-03T05:43:54.613Z,30.7
2022-08-03T05:46:14.128Z,30.7
2022-08-03T05:48:28.871Z,30.8
2022-08-03T05:50:43.790Z,31.2
2022-08-03T05:52:58.671Z,31.1
2022-08-03T05:55:28.622Z,30.7
2022-08-03T05:57:44.935Z,30.6
2022-08-03T06:00:11.987Z,30.9
2022-08-03T06:02:26.716Z,30.8
2022-08-03T06:04:41.394Z,30.9
2022-08-03T06:06:56.328Z,30.6
2022-08-03T06:09:11.047Z,30.6
2022-08-03T06:12:23.065Z,30.8
2022-08-03T06:14:37.882Z,30.9
2022-08-03T06:16:52.688Z,30.8
2022-08-03T06:19:07.679Z,30.7
2022-08-03T06:21:22.429Z,30.8
2022-08-03T06:23:55.736Z,30.6
2022-08-03T06:26:10.508Z,30.8
2022-08-03T06:28:51.305Z,30.7
2022-08-03T06:30:54.943Z,30.7
2022-08-03T06:33:09.899Z,31
2022-08-03T06:36:13.753Z,30.7
2022-08-03T06:38:28.313Z,31.2
2022-08-03T06:40:43.315Z,30.9
2022-08-03T06:42:58.154Z,30.5
2022-08-03T06:45:22.150Z,29.9
2022-08-03T06:47:36.933Z,30.4
2022-08-03T06:50:13.113Z,29.8
2022-08-03T06:52:40.035Z,30.8
2022-08-03T06:54:54.724Z,29.8
2022-08-03T06:57:09.728Z,30.8
2022-08-03T07:00:12.574Z,30.8
2022-08-03T07:02:28.336Z,30.8
2022-08-03T07:04:41.960Z,30.9
2022-08-03T07:06:56.849Z,30.8
2022-08-03T07:09:11.733Z,29.8
2022-08-03T07:11:28.765Z,30.8
2022-08-03T07:13:44.231Z,30.6
2022-08-03T07:16:12.481Z,30.8
2022-08-03T07:18:29.727Z,30.9
2022-08-03T07:20:42.045Z,30.9
2022-08-03T07:25:11.817Z,29.9
2022-08-03T07:27:26.613Z,30.8
2022-08-03T07:29:41.531Z,31.3
2022-08-03T07:31:56.529Z,30.7
2022-08-03T07:34:11.309Z,30.8
2022-08-03T07:36:26.818Z,30.9
2022-08-03T07:38:41.511Z,30.8
2022-08-03T07:40:56.408Z,29.9
2022-08-03T07:43:11.155Z,30.9
2022-08-03T07:45:26.104Z,30.7
2022-08-03T07:47:40.909Z,29.9
2022-08-03T07:49:55.738Z,29.6
2022-08-03T07:52:10.655Z,29.7
2022-08-03T07:54:25.461Z,29.8
2022-08-03T07:56:40.259Z,30.7
2022-08-03T07:58:55.231Z,30.7
2022-08-03T08:01:18.974Z,29.8
2022-08-03T08:03:41.002Z,29.6
2022-08-03T08:05:55.577Z,29.3
2022-08-03T08:08:10.474Z,29.6
2022-08-03T08:10:25.301Z,29.8
2022-08-03T08:12:40.216Z,30.6
2022-08-03T08:14:55.168Z,29.8
2022-08-03T08:17:09.885Z,30.3
2022-08-03T08:19:24.737Z,29.5
2022-08-03T08:21:52.859Z,29.7
2022-08-03T08:24:16.808Z,29.8
2022-08-03T08:26:29.512Z,29.4
2022-08-03T08:29:35.199Z,29.4
2022-08-03T08:31:50.159Z,29
2022-08-03T08:34:20.637Z,29.3
2022-08-03T08:36:35.393Z,30
2022-08-03T08:38:50.214Z,30.3
2022-08-03T08:41:05.246Z,29.6
2022-08-03T08:43:19.981Z,29.2
2022-08-03T08:45:34.766Z,29.5
2022-08-03T08:47:56.900Z,29.7
2022-08-03T08:50:15.560Z,29.1
2022-08-03T08:52:57.843Z,28.7
2022-08-03T08:55:12.567Z,29.8
2022-08-03T08:57:44.087Z,28.1
2022-08-03T09:00:06.816Z,29
2022-08-03T09:02:21.652Z,30.8
2022-08-03T09:04:36.586Z,28.9
2022-08-03T09:07:19.070Z,28.6
2022-08-03T09:10:13.775Z,28.4
2022-08-03T09:13:07.949Z,29.3
2022-08-03T09:15:57.232Z,29.7
2022-08-03T09:18:03.936Z,28.9
2022-08-03T09:20:20.691Z,28.8
2022-08-03T09:22:47.133Z,30
2022-08-03T09:25:40.856Z,29.2
2022-08-03T09:27:55.708Z,29.4
2022-08-03T09:30:36.502Z,29.8
2022-08-03T09:32:51.121Z,28.6
2022-08-03T09:35:05.966Z,27.1
2022-08-03T09:38:14.456Z,30.2
2022-08-03T09:40:29.566Z,29.8
2022-08-03T09:42:44.382Z,28.7
2022-08-03T09:44:59.475Z,29.6
2022-08-03T09:47:14.365Z,28
2022-08-03T09:49:29.571Z,30.8
2022-08-03T09:53:20.520Z,28.8
2022-08-03T09:56:38.030Z,27.9
2022-08-03T09:58:53.326Z,29.9
2022-08-03T10:01:08.369Z,30.5
2022-08-03T10:03:26.073Z,29.5
2022-08-03T10:05:53.881Z,29.4
2022-08-03T10:08:06.359Z,29.8
2022-08-03T10:10:32.641Z,30.9
2022-08-03T10:12:47.880Z,29.4
2022-08-03T10:15:02.706Z,30.6
2022-08-03T10:18:12.816Z,30.3
2022-08-03T10:20:27.531Z,29.1
2022-08-03T10:22:42.292Z,29.3
2022-08-03T10:24:57.153Z,30.1
2022-08-03T10:27:11.971Z,29.1
2022-08-03T10:29:26.849Z,29.9
2022-08-03T10:31:54.662Z,30.3
2022-08-03T10:34:24.544Z,29.4
2022-08-03T10:36:39.444Z,29.4
2022-08-03T10:38:58.639Z,30.3
2022-08-03T10:41:30.896Z,29.6
2022-08-03T10:43:45.809Z,29.8
2022-08-03T10:46:00.593Z,29.8
2022-08-03T10:48:15.635Z,29.6
2022-08-03T10:50:30.378Z,29.8
2022-08-03T10:52:52.792Z,29.8
2022-08-03T10:55:09.935Z,30.1
2022-08-03T10:57:37.051Z,29.6
2022-08-03T10:59:51.777Z,30.1
2022-08-03T11:02:18.022Z,29.6
2022-08-03T11:04:32.863Z,29.9
2022-08-03T11:06:47.741Z,29.9
2022-08-03T11:09:02.506Z,29.8
2022-08-03T11:11:17.554Z,29.6
2022-08-03T11:13:32.313Z,29.8
2022-08-03T11:15:47.112Z,29.5
2022-08-03T11:18:02.010Z,29.5
2022-08-03T11:20:30.631Z,29.5
2022-08-03T11:22:45.611Z,29.4
2022-08-03T11:25:36.622Z,29.6
2022-08-03T11:27:56.475Z,29.6
2022-08-03T11:30:11.217Z,29.6
2022-08-03T11:32:48.573Z,29.6
2022-08-03T11:35:01.839Z,29.5
2022-08-03T11:37:19.481Z,29.6
2022-08-03T11:39:36.406Z,29.6
2022-08-03T11:41:51.369Z,29.6
2022-08-03T11:44:06.238Z,29.6
2022-08-03T11:46:28.807Z,29.5
2022-08-03T11:48:37.046Z,29.7
2022-08-03T11:50:52.251Z,30.9
2022-08-03T11:53:06.663Z,30.9
2022-08-03T11:55:21.635Z,31.2
2022-08-03T11:59:19.578Z,30.5
2022-08-03T12:01:23.280Z,29.7
2022-08-03T12:03:37.892Z,29.6
2022-08-03T12:05:52.843Z,29.6
2022-08-03T12:08:38.627Z,29.6
2022-08-03T12:10:53.588Z,29.7
2022-08-03T12:13:56.991Z,29.8
2022-08-03T12:16:52.276Z,29.7
2022-08-03T12:19:07.200Z,29.8
2022-08-03T12:21:22.314Z,29.6
2022-08-03T12:23:37.895Z,29.6
2022-08-03T12:25:56.345Z,29.7
2022-08-03T12:28:30.415Z,29.6
2022-08-03T12:30:40.299Z,29.7
2022-08-03T12:32:55.143Z,29.8
2022-08-03T12:35:09.950Z,29.7
2022-08-03T12:37:25.872Z,29.9
2022-08-03T12:40:00.817Z,29.8
2022-08-03T12:42:07.711Z,29.9
2022-08-03T12:44:22.625Z,30.1
2022-08-03T12:46:37.690Z,29.7
2022-08-03T12:48:52.589Z,29.8
2022-08-03T12:51:07.695Z,29.6
2022-08-03T12:53:22.448Z,29.5
2022-08-03T12:55:40.306Z,29.7
2022-08-03T12:58:07.813Z,29.6
2022-08-03T13:00:29.271Z,29.4
2022-08-03T13:02:42.210Z,29.6
2022-08-03T13:05:25.809Z,29.5
2022-08-03T13:07:40.898Z,29.7
2022-08-03T13:09:55.489Z,29.8
2022-08-03T13:12:34.186Z,29.6
2022-08-03T13:14:49.119Z,29.6
2022-08-03T13:17:03.946Z,29.4
2022-08-03T13:19:18.797Z,29.3
2022-08-03T13:21:33.743Z,29.7
2022-08-03T13:23:55.852Z,29.7
2022-08-03T13:26:13.013Z,29.6
2022-08-03T13:29:16.256Z,29.7
2022-08-03T13:31:31.969Z,29.7
2022-08-03T13:33:46.890Z,29.8
2022-08-03T13:36:01.678Z,31.1
2022-08-03T13:38:28.088Z,31.1
2022-08-03T13:40:47.342Z,31.1
2022-08-03T13:43:02.055Z,30.8
2022-08-03T13:45:30.894Z,30.9
2022-08-03T13:47:45.540Z,30.9
2022-08-03T13:50:08.975Z,31.3
2022-08-03T13:52:24.308Z,31.7
2022-08-03T13:54:39.209Z,30.2
2022-08-03T13:56:56.706Z,30.1
2022-08-03T13:59:51.722Z,30.3
2022-08-03T14:02:27.997Z,30.8
2022-08-03T14:04:44.179Z,31.4
2022-08-03T14:06:57.637Z,31.4
2022-08-03T14:09:12.528Z,30.8
2022-08-03T14:12:03.858Z,30.6
2022-08-03T14:14:09.655Z,30.9
2022-08-03T14:16:24.478Z,30.8
2022-08-03T14:18:40.093Z,30.8
2022-08-03T14:21:11.594Z,31.9
2022-08-03T14:23:26.416Z,31.1
2022-08-03T14:25:43.708Z,32.4
2022-08-03T14:27:56.381Z,30.9
2022-08-03T14:30:11.189Z,31.4
2022-08-03T14:33:14.188Z,31.9
2022-08-03T14:35:29.049Z,30.4
2022-08-03T14:37:43.941Z,32.3
2022-08-03T14:40:17.702Z,31.9
2022-08-03T14:42:32.563Z,31.8
2022-08-03T14:44:49.982Z,31.3
2022-08-03T14:47:07.472Z,31.6
2022-08-03T14:52:10.518Z,31.6
2022-08-03T14:54:25.435Z,31.6
2022-08-03T14:56:40.110Z,30.6
2022-08-03T14:58:55.162Z,30.9
2022-08-03T15:02:03.674Z,32.1
2022-08-03T15:04:07.335Z,31.8
2022-08-03T15:06:22.217Z,30.9
2022-08-03T15:08:37.019Z,31.7
2022-08-03T15:11:12.930Z,31.8
2022-08-03T15:13:27.320Z,31.4
2022-08-03T15:15:42.368Z,30.7
2022-08-03T15:18:02.354Z,31.2
2022-08-03T15:21:00.613Z,30.4
2022-08-03T15:23:33.973Z,32.1
2022-08-03T15:26:51.910Z,31.9
2022-08-03T15:30:06.398Z,32.1
2022-08-03T15:32:12.463Z,31.7
2022-08-03T15:34:27.430Z,31.7
2022-08-03T15:36:42.175Z,32
2022-08-03T15:38:57.135Z,30.3
2022-08-03T15:41:16.795Z,31.8
2022-08-03T15:43:31.580Z,31.6
2022-08-03T15:45:46.446Z,31.8
2022-08-03T15:48:16.392Z,30.3
2022-08-03T15:50:31.013Z,31.7
2022-08-03T15:52:46.158Z,30.5
2022-08-03T15:55:01.085Z,30.4
2022-08-03T15:57:16.366Z,32.1
2022-08-03T16:00:48.347Z,30.7
2022-08-03T16:03:03.204Z,31.8
2022-08-03T16:05:18.139Z,30.3
2022-08-03T16:07:33.187Z,30.4
2022-08-03T16:09:59.445Z,31.7
2022-08-03T16:12:15.377Z,31.4
2022-08-03T16:15:18.641Z,31.6
2022-08-03T16:17:33.454Z,30.7
2022-08-03T16:19:48.285Z,29.6
2022-08-03T16:22:05.899Z,30.3
2022-08-03T16:24:27.998Z,31.5
2022-08-03T16:26:35.670Z,31.1
2022-08-03T16:29:22.523Z,31
2022-08-03T16:31:33.077Z,30.8
2022-08-03T16:33:47.953Z,32.3
2022-08-03T16:36:02.755Z,31.9
2022-08-03T16:38:26.966Z,29.7
2022-08-03T16:40:40.410Z,30.4
2022-08-03T16:43:17.797Z,32
2022-08-03T16:45:25.893Z,31.2
2022-08-03T16:47:40.899Z,30.9
2022-08-03T16:50:15.705Z,31.3
2022-08-03T16:52:27.267Z,31.3
2022-08-03T16:55:00.128Z,31.3
2022-08-03T16:57:29.833Z,31.4
2022-08-03T17:00:01.066Z,31.4
2022-08-03T17:02:26.186Z,29.8
2022-08-03T17:04:50.603Z,30.6
2022-08-03T17:07:04.596Z,31.6
2022-08-03T17:09:20.526Z,31.2
2022-08-03T17:11:34.283Z,31.3
2022-08-03T17:13:49.058Z,31.1
2022-08-03T17:16:19.039Z,31.3
2022-08-03T17:18:47.291Z,31.3
2022-08-03T17:20:58.445Z,31.3
2022-08-03T17:23:14.544Z,31.8
2022-08-03T17:26:04.286Z,31.7
2022-08-03T17:29:39.489Z,31.9
2022-08-03T17:32:10.171Z,31.9
2022-08-03T17:34:26.224Z,31.9
2022-08-03T17:37:02.504Z,31.9
2022-08-03T17:39:48.756Z,31.6
2022-08-03T17:41:59.541Z,31.6
2022-08-03T17:45:22.940Z,31.9
2022-08-03T21:14:50.501Z,30.3
2022-08-03T21:17:48.584Z,31.1
2022-08-03T21:20:03.368Z,31.9
2022-08-03T21:22:18.317Z,32.5
2022-08-03T21:24:50.361Z,31.8
2022-08-03T21:27:02.691Z,31.9
2022-08-03T21:29:17.678Z,31.7
2022-08-03T21:31:32.487Z,31.6
2022-08-03T21:33:49.578Z,31.8
2022-08-03T21:36:04.326Z,31.6
2022-08-03T21:38:19.179Z,31.9
2022-08-03T21:40:34.120Z,31.9
2022-08-03T21:42:48.768Z,31.8
2022-08-03T21:45:03.625Z,31.8
2022-08-03T21:47:18.528Z,30.4
2022-08-03T21:50:26.396Z,30.8
2022-08-03T21:52:41.161Z,31.7
2022-08-03T21:55:23.531Z,31.7
2022-08-03T21:57:38.522Z,32
2022-08-03T21:59:53.239Z,31.9
2022-08-03T22:02:11.548Z,32.1
2022-08-03T22:04:55.846Z,31.9
2022-08-03T22:07:14.867Z,31.9
2022-08-03T22:09:29.879Z,31.8
2022-08-03T22:11:44.742Z,31.5
2022-08-03T22:14:00.920Z,31.4
2022-08-03T22:16:15.769Z,31.4
2022-08-03T22:18:56.560Z,31.5
2022-08-03T22:21:11.423Z,31.4
2022-08-03T22:23:26.968Z,31.1
2022-08-03T22:25:41.760Z,31.6
2022-08-03T22:27:56.738Z,31.2
2022-08-03T22:30:12.309Z,31.6
2022-08-03T22:33:00.031Z,31.5
2022-08-03T22:35:15.152Z,31.5
2022-08-03T22:37:30.898Z,31.3
2022-08-03T22:39:44.678Z,31.7
2022-08-03T22:41:59.522Z,31.8
2022-08-03T22:44:14.374Z,31.8
2022-08-03T22:47:13.175Z,31.7
2022-08-03T22:49:27.931Z,31.4
2022-08-03T22:52:04.896Z,31.7
2022-08-03T22:54:19.781Z,31.7
2022-08-03T22:56:34.693Z,31.7
2022-08-03T22:58:49.498Z,31.3
2022-08-03T23:01:27.450Z,31.3
2022-08-03T23:04:03.474Z,31.2
2022-08-03T23:06:50.530Z,31.3
2022-08-03T23:09:05.377Z,31.6
2022-08-03T23:11:20.312Z,31.6
2022-08-03T23:13:35.134Z,31.6
2022-08-03T23:15:49.976Z,31.6
2022-08-03T23:18:15.617Z,31.6
2022-08-03T23:20:33.616Z,32
2022-08-03T23:23:19.885Z,31.5
2022-08-03T23:25:32.917Z,31.7
2022-08-03T23:27:47.653Z,30.3
2022-08-03T23:30:06.689Z,31.6
2022-08-03T23:32:21.493Z,31.4
2022-08-03T23:34:36.553Z,31.6
2022-08-03T23:38:03.919Z,31.3
2022-08-03T23:40:24.911Z,31.1
2022-08-03T23:42:39.593Z,31.2
2022-08-03T23:45:09.318Z,31.3
2022-08-03T23:47:24.829Z,31.5
2022-08-03T23:49:49.935Z,31.6
2022-08-03T23:52:04.696Z,31.6
2022-08-03T23:54:19.649Z,31.6
2022-08-03T23:56:34.286Z,31.6
2022-08-03T23:58:49.245Z,31.4
